Time;durP1;ratioP1;P1;durP2;ratioP2;P2;SDS_P1;SDS_P2;PMS_P1;PMS_P2;Temp;Humidity;BMP_temperature;BMP_pressure;BME280_temperature;BME280_humidity;BME280_pressure;Samples;Min_cycle;Max_cycle;Signal;HPM_P1;HPM_P2
2021/11/23 00:00:08;;;;;;;11.05;6.38;;;;;;;;;;5060154;28;20056;-71
2021/11/23 00:02:38;;;;;;;11.68;6.63;;;;;;;;;;5052422;28;20048;-72
2021/11/23 00:05:06;;;;;;;12.68;6.53;;;;;;;;;;5055253;28;20139;-72
2021/11/23 00:07:32;;;;;;;12.48;6.75;;;;;;;;;;5046095;28;20516;-72
2021/11/23 00:09:59;;;;;;;14.88;6.68;;;;;;;;;;5060118;28;20409;-72
2021/11/23 00:12:25;;;;;;;10.75;6.00;;;;;;;;;;5053964;28;20040;-72
2021/11/23 00:14:51;;;;;;;12.85;7.10;;;;;;;;;;5061164;28;20532;-72
2021/11/23 00:17:18;;;;;;;12.35;6.90;;;;;;;;;;5062733;28;20053;-72
2021/11/23 00:19:44;;;;;;;14.68;6.95;;;;;;;;;;5047353;28;20070;-72
2021/11/23 00:22:11;;;;;;;12.15;6.85;;;;;;;;;;5060342;28;20899;-72
2021/11/23 00:24:37;;;;;;;11.60;6.75;;;;;;;;;;5054235;28;20094;-72
2021/11/23 00:27:04;;;;;;;17.50;8.07;;;;;;;;;;5063041;28;20052;-72
2021/11/23 00:29:31;;;;;;;16.27;8.25;;;;;;;;;;5057863;28;20052;-72
2021/11/23 00:31:58;;;;;;;14.80;7.18;;;;;;;;;;5039385;28;20460;-72
2021/11/23 00:34:24;;;;;;;12.88;6.90;;;;;;;;;;5054815;28;20364;-72
2021/11/23 00:36:51;;;;;;;16.08;7.40;;;;;;;;;;5053591;28;20053;-72
2021/11/23 00:39:18;;;;;;;11.63;6.70;;;;;;;;;;5061569;28;20056;-72
2021/11/23 00:41:47;;;;;;;13.45;7.43;;;;;;;;;;5054415;28;20056;-72
2021/11/23 00:44:17;;;;;;;13.60;6.93;;;;;;;;;;5061668;28;20473;-72
2021/11/23 00:46:44;;;;;;;16.08;7.25;;;;;;;;;;5049030;28;20369;-72
2021/11/23 00:49:11;;;;;;;11.30;6.85;;;;;;;;;;5056801;28;20059;-72
2021/11/23 00:51:38;;;;;;;15.45;6.82;;;;;;;;;;5062504;28;20139;-72
2021/11/23 00:54:04;;;;;;;15.88;7.28;;;;;;;;;;5056173;28;20512;-72
2021/11/23 00:56:31;;;;;;;12.23;6.70;;;;;;;;;;5060032;28;20144;-72
2021/11/23 00:58:57;;;;;;;12.73;6.97;;;;;;;;;;5052803;28;20403;-72
2021/11/23 01:01:24;;;;;;;14.05;7.63;;;;;;;;;;5054055;28;20060;-72
2021/11/23 01:03:50;;;;;;;14.25;7.03;;;;;;;;;;5051881;28;20397;-72
2021/11/23 01:06:17;;;;;;;13.73;7.53;;;;;;;;;;5061236;28;20060;-72
2021/11/23 01:08:43;;;;;;;14.57;7.88;;;;;;;;;;5060546;28;20058;-72
2021/11/23 01:11:11;;;;;;;12.05;7.00;;;;;;;;;;5053591;28;20066;-72
2021/11/23 01:13:37;;;;;;;16.45;7.63;;;;;;;;;;5059842;28;20057;-72
2021/11/23 01:16:04;;;;;;;15.27;7.43;;;;;;;;;;5054050;28;20051;-72
2021/11/23 01:18:34;;;;;;;16.50;7.28;;;;;;;;;;5058942;28;20059;-72
2021/11/23 01:21:00;;;;;;;18.42;7.93;;;;;;;;;;5032944;28;20048;-72
2021/11/23 01:23:27;;;;;;;11.90;7.32;;;;;;;;;;5043099;28;20481;-72
2021/11/23 01:25:53;;;;;;;14.43;6.60;;;;;;;;;;5053759;28;20111;-72
2021/11/23 01:28:20;;;;;;;13.18;7.60;;;;;;;;;;5052080;28;20048;-72
2021/11/23 01:30:46;;;;;;;16.27;7.70;;;;;;;;;;5060881;28;20056;-72
2021/11/23 01:33:12;;;;;;;14.98;7.68;;;;;;;;;;5055680;28;20045;-72
2021/11/23 01:35:39;;;;;;;15.75;7.45;;;;;;;;;;5042469;28;20071;-72
2021/11/23 01:38:05;;;;;;;16.95;7.00;;;;;;;;;;5052471;28;20053;-72
2021/11/23 01:40:32;;;;;;;16.52;7.40;;;;;;;;;;5055108;28;20481;-72
2021/11/23 01:42:58;;;;;;;16.73;7.38;;;;;;;;;;5061525;28;20049;-72
2021/11/23 01:45:25;;;;;;;21.52;7.63;;;;;;;;;;5054444;28;20402;-72
2021/11/23 01:47:51;;;;;;;16.15;6.95;;;;;;;;;;5059668;28;20052;-72
2021/11/23 01:50:17;;;;;;;13.02;7.93;;;;;;;;;;5053847;28;20052;-72
2021/11/23 01:52:44;;;;;;;13.60;8.23;;;;;;;;;;5037855;28;20045;-72
2021/11/23 01:55:11;;;;;;;13.63;7.78;;;;;;;;;;5031358;28;20496;-72
2021/11/23 01:57:37;;;;;;;17.30;8.85;;;;;;;;;;5040515;28;20044;-73
2021/11/23 02:00:05;;;;;;;17.15;7.82;;;;;;;;;;5041859;28;20502;-73
2021/11/23 02:02:32;;;;;;;17.67;8.90;;;;;;;;;;5050771;28;20056;-73
2021/11/23 02:04:58;;;;;;;13.40;7.63;;;;;;;;;;5040516;28;20056;-73
2021/11/23 02:07:24;;;;;;;19.98;8.93;;;;;;;;;;5042786;28;20048;-73
2021/11/23 02:09:51;;;;;;;18.80;9.52;;;;;;;;;;5060529;28;20053;-73
2021/11/23 02:12:18;;;;;;;15.45;8.38;;;;;;;;;;5054119;28;20063;-73
2021/11/23 02:14:44;;;;;;;14.68;7.60;;;;;;;;;;5061500;28;20048;-71
2021/11/23 02:17:10;;;;;;;16.15;8.95;;;;;;;;;;5055409;28;20044;-71
2021/11/23 02:19:37;;;;;;;14.63;8.52;;;;;;;;;;5056414;28;20056;-71
2021/11/23 02:22:03;;;;;;;18.90;8.65;;;;;;;;;;5056900;28;20044;-72
2021/11/23 02:24:30;;;;;;;22.95;8.95;;;;;;;;;;5034921;28;20045;-71
2021/11/23 02:26:56;;;;;;;17.20;8.43;;;;;;;;;;5061488;28;20044;-71
2021/11/23 02:29:23;;;;;;;15.13;8.57;;;;;;;;;;5053342;28;20044;-72
2021/11/23 02:31:49;;;;;;;15.32;8.68;;;;;;;;;;5061879;28;20048;-73
2021/11/23 02:34:15;;;;;;;23.85;9.43;;;;;;;;;;5051468;28;20048;-73
2021/11/23 02:36:42;;;;;;;17.75;8.68;;;;;;;;;;5054520;28;20107;-73
2021/11/23 02:39:08;;;;;;;16.27;8.38;;;;;;;;;;5059754;28;20053;-73
2021/11/23 02:41:37;;;;;;;17.20;8.63;;;;;;;;;;5051740;28;20754;-73
2021/11/23 02:44:04;;;;;;;16.92;8.70;;;;;;;;;;5060863;28;20056;-73
2021/11/23 02:46:31;;;;;;;17.77;9.15;;;;;;;;;;5054351;28;20044;-73
2021/11/23 02:48:57;;;;;;;16.50;9.18;;;;;;;;;;5054430;28;20051;-71
2021/11/23 02:51:23;;;;;;;17.42;9.93;;;;;;;;;;5051708;28;20048;-73
2021/11/23 02:53:50;;;;;;;18.08;9.10;;;;;;;;;;5060379;28;20049;-73
2021/11/23 02:56:17;;;;;;;17.25;9.43;;;;;;;;;;5061455;28;20142;-73
2021/11/23 02:58:49;;;;;;;14.63;7.45;;;;;;;;;;5054481;28;20052;-73
2021/11/23 03:01:17;;;;;;;14.30;8.10;;;;;;;;;;5060101;28;20702;-72
2021/11/23 03:03:44;;;;;;;17.65;8.55;;;;;;;;;;5054716;28;20372;-73
2021/11/23 03:06:13;;;;;;;19.17;9.02;;;;;;;;;;5040669;28;20052;-73
2021/11/23 03:08:40;;;;;;;14.63;7.95;;;;;;;;;;5053870;28;20051;-73
2021/11/23 03:11:08;;;;;;;14.80;8.45;;;;;;;;;;5059630;28;20484;-73
2021/11/23 03:13:34;;;;;;;15.10;8.27;;;;;;;;;;5053280;28;20049;-73
2021/11/23 03:16:01;;;;;;;13.07;8.00;;;;;;;;;;5053237;28;20055;-73
2021/11/23 03:18:27;;;;;;;14.52;8.90;;;;;;;;;;5060014;28;20059;-73
2021/11/23 03:20:53;;;;;;;14.07;8.45;;;;;;;;;;5032715;28;20127;-72
2021/11/23 03:23:20;;;;;;;13.82;8.40;;;;;;;;;;5062057;28;20045;-73
2021/11/23 03:25:47;;;;;;;14.73;8.43;;;;;;;;;;5051351;28;20056;-73
2021/11/23 03:28:15;;;;;;;18.33;7.53;;;;;;;;;;5063967;28;20300;-74
2021/11/23 03:30:42;;;;;;;12.40;7.80;;;;;;;;;;5061302;28;20053;-74
2021/11/23 03:33:09;;;;;;;13.30;7.38;;;;;;;;;;5063022;28;20040;-74
2021/11/23 03:35:37;;;;;;;13.65;7.55;;;;;;;;;;5063294;28;20041;-75
2021/11/23 03:38:04;;;;;;;12.98;7.60;;;;;;;;;;5052514;28;20048;-74
2021/11/23 03:40:32;;;;;;;14.57;7.78;;;;;;;;;;5059220;28;20052;-74
2021/11/23 03:42:58;;;;;;;11.90;7.03;;;;;;;;;;5058369;28;20068;-74
2021/11/23 03:45:25;;;;;;;12.60;6.65;;;;;;;;;;5064170;28;20405;-74
2021/11/23 03:47:53;;;;;;;14.80;7.80;;;;;;;;;;5057950;28;20060;-74
2021/11/23 03:50:20;;;;;;;15.25;7.35;;;;;;;;;;5063660;28;20722;-74
2021/11/23 03:52:47;;;;;;;13.55;7.70;;;;;;;;;;5059234;28;20056;-74
2021/11/23 03:55:16;;;;;;;14.30;7.07;;;;;;;;;;5052918;28;20045;-74
2021/11/23 03:57:43;;;;;;;13.65;7.32;;;;;;;;;;5044237;28;20058;-73
2021/11/23 04:00:11;;;;;;;16.20;6.78;;;;;;;;;;5057939;28;20048;-73
2021/11/23 04:02:37;;;;;;;15.75;7.22;;;;;;;;;;5063882;28;20048;-73
2021/11/23 04:05:04;;;;;;;11.65;7.30;;;;;;;;;;5056352;28;20259;-73
2021/11/23 04:07:30;;;;;;;18.10;7.38;;;;;;;;;;5055918;28;20048;-73
2021/11/23 04:09:57;;;;;;;14.70;7.07;;;;;;;;;;5042648;28;20458;-73
2021/11/23 04:12:23;;;;;;;12.63;6.78;;;;;;;;;;5057141;28;20056;-73
2021/11/23 04:14:49;;;;;;;13.75;7.65;;;;;;;;;;5044233;28;20060;-73
2021/11/23 04:17:16;;;;;;;12.93;6.45;;;;;;;;;;5056557;28;20079;-73
2021/11/23 04:19:42;;;;;;;14.52;7.43;;;;;;;;;;5056642;28;20056;-73
2021/11/23 04:22:08;;;;;;;14.93;6.70;;;;;;;;;;5049016;28;20490;-73
2021/11/23 04:24:36;;;;;;;16.65;6.95;;;;;;;;;;5060608;28;20044;-73
2021/11/23 04:27:04;;;;;;;16.35;6.13;;;;;;;;;;5061672;28;20078;-73
2021/11/23 04:29:30;;;;;;;13.98;6.82;;;;;;;;;;5054491;28;20507;-73
2021/11/23 04:31:57;;;;;;;14.13;7.00;;;;;;;;;;5042957;28;20040;-73
2021/11/23 04:34:27;;;;;;;12.00;7.20;;;;;;;;;;5050718;28;20041;-73
2021/11/23 04:36:54;;;;;;;13.73;6.95;;;;;;;;;;5056970;28;20966;-73
2021/11/23 04:39:20;;;;;;;11.75;6.40;;;;;;;;;;5054547;28;20089;-73
2021/11/23 04:41:46;;;;;;;19.85;7.47;;;;;;;;;;5061559;28;20048;-73
2021/11/23 04:44:13;;;;;;;14.10;6.90;;;;;;;;;;5056770;28;20559;-73
2021/11/23 04:46:39;;;;;;;13.02;6.22;;;;;;;;;;5060851;28;20048;-73
2021/11/23 04:49:06;;;;;;;18.60;6.30;;;;;;;;;;5057695;28;20056;-73
2021/11/23 04:51:32;;;;;;;11.57;5.53;;;;;;;;;;5051177;28;20060;-73
2021/11/23 04:53:59;;;;;;;13.35;5.82;;;;;;;;;;5062922;28;20056;-73
2021/11/23 04:56:25;;;;;;;13.40;5.72;;;;;;;;;;5056348;28;20052;-73
2021/11/23 04:58:52;;;;;;;16.63;6.28;;;;;;;;;;5061891;28;20064;-73
2021/11/23 05:01:18;;;;;;;10.90;5.60;;;;;;;;;;5053558;28;20056;-73
2021/11/23 05:03:45;;;;;;;12.60;5.65;;;;;;;;;;5052902;28;20052;-73
2021/11/23 05:06:11;;;;;;;15.32;5.60;;;;;;;;;;5061744;28;20048;-73
2021/11/23 05:08:37;;;;;;;10.73;6.03;;;;;;;;;;5055808;28;20048;-73
2021/11/23 05:11:04;;;;;;;12.43;5.10;;;;;;;;;;5062032;28;20045;-73
2021/11/23 05:13:30;;;;;;;11.07;5.40;;;;;;;;;;5056439;28;20489;-73
2021/11/23 05:15:56;;;;;;;14.65;5.60;;;;;;;;;;5058259;28;20066;-73
2021/11/23 05:18:24;;;;;;;14.60;5.55;;;;;;;;;;5051056;28;20603;-73
2021/11/23 05:20:51;;;;;;;12.13;5.68;;;;;;;;;;5040311;28;20143;-73
2021/11/23 05:23:17;;;;;;;13.70;4.78;;;;;;;;;;5061778;28;20045;-73
2021/11/23 05:25:43;;;;;;;11.90;5.13;;;;;;;;;;5052888;28;20044;-73
2021/11/23 05:28:10;;;;;;;14.27;6.20;;;;;;;;;;5042676;28;20075;-73
2021/11/23 05:30:36;;;;;;;13.63;5.20;;;;;;;;;;5032451;28;20051;-73
2021/11/23 05:33:02;;;;;;;12.60;5.47;;;;;;;;;;5039017;28;20067;-73
2021/11/23 05:35:29;;;;;;;13.07;5.20;;;;;;;;;;5055440;28;20046;-73
2021/11/23 05:37:55;;;;;;;13.55;5.38;;;;;;;;;;5042994;28;20044;-73
2021/11/23 05:40:22;;;;;;;14.65;5.97;;;;;;;;;;5060989;28;20062;-73
2021/11/23 05:42:48;;;;;;;16.70;6.30;;;;;;;;;;5053442;28;20055;-73
2021/11/23 05:45:14;;;;;;;11.40;5.32;;;;;;;;;;5037136;28;20115;-73
2021/11/23 05:47:41;;;;;;;11.07;5.55;;;;;;;;;;5050049;28;20048;-73
2021/11/23 05:50:08;;;;;;;18.70;5.70;;;;;;;;;;5061068;28;20045;-73
2021/11/23 05:52:35;;;;;;;11.38;5.20;;;;;;;;;;5055605;28;20044;-73
2021/11/23 05:55:02;;;;;;;13.88;6.20;;;;;;;;;;5061023;28;20092;-72
2021/11/23 05:57:29;;;;;;;10.93;5.35;;;;;;;;;;5059914;28;20059;-72
2021/11/23 05:59:55;;;;;;;12.80;5.07;;;;;;;;;;5047528;28;20056;-72
2021/11/23 06:02:21;;;;;;;15.85;6.05;;;;;;;;;;5039775;28;20052;-72
2021/11/23 06:04:48;;;;;;;11.43;5.80;;;;;;;;;;5049724;28;20071;-74
2021/11/23 06:07:14;;;;;;;12.27;5.43;;;;;;;;;;5042359;28;20060;-72
2021/11/23 06:09:40;;;;;;;15.10;5.50;;;;;;;;;;5054685;28;20056;-71
2021/11/23 06:12:08;;;;;;;14.65;6.40;;;;;;;;;;5062014;28;20067;-71
2021/11/23 06:14:36;;;;;;;12.90;6.07;;;;;;;;;;5059800;28;20533;-72
2021/11/23 06:17:04;;;;;;;15.43;5.78;;;;;;;;;;5037576;28;20063;-72
2021/11/23 06:19:31;;;;;;;14.80;6.00;;;;;;;;;;5037497;28;20071;-72
2021/11/23 06:21:57;;;;;;;25.33;6.90;;;;;;;;;;5051627;28;20068;-72
2021/11/23 06:24:23;;;;;;;14.25;5.55;;;;;;;;;;5058391;28;20048;-72
2021/11/23 06:26:50;;;;;;;15.00;5.72;;;;;;;;;;5045250;28;20060;-72
2021/11/23 06:29:16;;;;;;;12.15;5.40;;;;;;;;;;5053844;28;20044;-72
2021/11/23 06:31:42;;;;;;;11.20;5.70;;;;;;;;;;5051647;28;20056;-72
2021/11/23 06:34:09;;;;;;;13.57;6.60;;;;;;;;;;5059428;28;20059;-72
2021/11/23 06:36:36;;;;;;;14.50;5.30;;;;;;;;;;5060564;28;21097;-72
2021/11/23 06:39:04;;;;;;;15.52;5.90;;;;;;;;;;5051669;28;20049;-72
2021/11/23 06:41:31;;;;;;;15.00;6.05;;;;;;;;;;5035008;28;20044;-72
2021/11/23 06:44:02;;;;;;;16.75;5.90;;;;;;;;;;5051083;28;20049;-72
2021/11/23 06:46:29;;;;;;;11.45;5.38;;;;;;;;;;5059647;28;20505;-72
2021/11/23 06:48:55;;;;;;;15.02;6.35;;;;;;;;;;5054500;28;20436;-72
2021/11/23 06:51:22;;;;;;;15.07;6.68;;;;;;;;;;5058897;28;20076;-72
2021/11/23 06:53:54;;;;;;;14.00;6.00;;;;;;;;;;5053355;28;20049;-72
2021/11/23 06:56:21;;;;;;;12.30;6.07;;;;;;;;;;5027518;28;20390;-72
2021/11/23 06:58:47;;;;;;;14.02;5.60;;;;;;;;;;5043855;28;20044;-72
2021/11/23 07:01:14;;;;;;;16.10;6.53;;;;;;;;;;5054592;28;20041;-72
2021/11/23 07:03:41;;;;;;;14.07;5.63;;;;;;;;;;5061814;28;20040;-72
2021/11/23 07:06:07;;;;;;;13.95;5.88;;;;;;;;;;5056070;28;20049;-72
2021/11/23 07:08:33;;;;;;;11.80;6.07;;;;;;;;;;5037361;28;20048;-72
2021/11/23 07:11:00;;;;;;;13.15;5.90;;;;;;;;;;5042219;28;20056;-72
2021/11/23 07:13:26;;;;;;;13.10;5.68;;;;;;;;;;5036191;28;20045;-72
2021/11/23 07:15:52;;;;;;;17.10;6.47;;;;;;;;;;5062866;28;20040;-72
2021/11/23 07:18:20;;;;;;;9.18;4.88;;;;;;;;;;5037744;28;20047;-72
2021/11/23 07:20:46;;;;;;;12.43;5.80;;;;;;;;;;5060354;28;20044;-72
2021/11/23 07:23:13;;;;;;;9.75;5.32;;;;;;;;;;5032934;28;20432;-72
2021/11/23 07:25:39;;;;;;;16.40;6.60;;;;;;;;;;5061710;28;20045;-72
2021/11/23 07:28:06;;;;;;;16.38;6.00;;;;;;;;;;5063053;28;20058;-72
2021/11/23 07:30:32;;;;;;;10.85;5.70;;;;;;;;;;5056527;28;20048;-72
2021/11/23 07:33:02;;;;;;;12.65;5.70;;;;;;;;;;5059885;28;20060;-72
2021/11/23 07:35:29;;;;;;;18.27;6.70;;;;;;;;;;5050326;28;20045;-72
2021/11/23 07:37:55;;;;;;;13.48;6.32;;;;;;;;;;5063454;28;20048;-72
2021/11/23 07:40:22;;;;;;;10.35;6.03;;;;;;;;;;5056699;28;20052;-72
2021/11/23 07:42:48;;;;;;;15.52;7.15;;;;;;;;;;5062484;28;20067;-72
2021/11/23 07:45:34;;;;;;;14.65;6.22;;;;;;;;;;5056268;28;20526;-72
2021/11/23 07:48:01;;;;;;;12.43;6.22;;;;;;;;;;5039330;28;20052;-72
2021/11/23 07:50:27;;;;;;;11.85;5.93;;;;;;;;;;5038104;28;20078;-72
2021/11/23 07:52:53;;;;;;;17.42;6.57;;;;;;;;;;5056526;28;20060;-71
2021/11/23 07:55:20;;;;;;;11.57;6.95;;;;;;;;;;5064365;28;20055;-71
2021/11/23 07:57:46;;;;;;;12.50;6.32;;;;;;;;;;5057168;28;20044;-71
2021/11/23 08:00:13;;;;;;;10.27;6.68;;;;;;;;;;5062638;28;20512;-70
2021/11/23 08:02:39;;;;;;;17.08;6.40;;;;;;;;;;5051679;28;20056;-70
2021/11/23 08:05:06;;;;;;;9.77;5.78;;;;;;;;;;5058474;28;20105;-70
2021/11/23 08:07:32;;;;;;;12.27;6.97;;;;;;;;;;5061174;28;20063;-71
2021/11/23 08:09:59;;;;;;;17.55;7.45;;;;;;;;;;5052611;28;20091;-72
2021/11/23 08:12:26;;;;;;;14.00;6.70;;;;;;;;;;5062062;28;20132;-72
2021/11/23 08:14:52;;;;;;;15.70;6.93;;;;;;;;;;5051592;28;20048;-71
2021/11/23 08:17:19;;;;;;;15.38;7.15;;;;;;;;;;5035913;28;20275;-72
2021/11/23 08:19:45;;;;;;;14.70;6.95;;;;;;;;;;5056404;28;20048;-72
2021/11/23 08:22:11;;;;;;;15.32;7.07;;;;;;;;;;5060985;28;20860;-72
2021/11/23 08:24:38;;;;;;;12.52;6.80;;;;;;;;;;5062962;28;20139;-72
2021/11/23 08:27:04;;;;;;;11.85;6.88;;;;;;;;;;5056889;28;20052;-72
2021/11/23 08:29:30;;;;;;;13.43;6.97;;;;;;;;;;5058944;28;20051;-72
2021/11/23 08:31:57;;;;;;;11.73;6.22;;;;;;;;;;5052671;28;20053;-72
2021/11/23 08:34:23;;;;;;;11.95;6.82;;;;;;;;;;5063312;28;20569;-72
2021/11/23 08:36:50;;;;;;;12.65;7.07;;;;;;;;;;5055902;28;20055;-72
2021/11/23 08:39:17;;;;;;;12.18;7.60;;;;;;;;;;5061115;28;20041;-73
2021/11/23 08:41:44;;;;;;;13.07;6.95;;;;;;;;;;5056915;28;20052;-74
2021/11/23 08:44:11;;;;;;;12.88;7.38;;;;;;;;;;5030617;28;20348;-72
2021/11/23 08:46:37;;;;;;;12.65;7.63;;;;;;;;;;5057241;28;20476;-73
2021/11/23 08:49:04;;;;;;;15.23;7.47;;;;;;;;;;5051830;28;20055;-72
2021/11/23 08:51:34;;;;;;;12.18;8.20;;;;;;;;;;5059840;28;20048;-73
2021/11/23 08:54:01;;;;;;;17.20;9.43;;;;;;;;;;5051785;28;20048;-73
2021/11/23 08:56:33;;;;;;;15.35;8.80;;;;;;;;;;5055746;28;20044;-73
2021/11/23 08:59:01;;;;;;;14.07;9.52;;;;;;;;;;5036002;28;20071;-73
2021/11/23 09:01:28;;;;;;;17.60;9.05;;;;;;;;;;5060543;28;20052;-72
2021/11/23 09:03:55;;;;;;;13.27;8.80;;;;;;;;;;5059291;28;20098;-73
2021/11/23 09:06:24;;;;;;;18.95;9.82;;;;;;;;;;5034929;28;20110;-72
2021/11/23 09:08:58;;;;;;;19.67;10.07;;;;;;;;;;5055224;28;20044;-73
2021/11/23 09:11:25;;;;;;;21.50;10.57;;;;;;;;;;5048192;28;20049;-72
2021/11/23 09:13:54;;;;;;;14.10;9.18;;;;;;;;;;5057870;28;20056;-73
2021/11/23 09:16:21;;;;;;;21.83;9.65;;;;;;;;;;5050669;28;20053;-73
2021/11/23 09:18:48;;;;;;;18.52;8.35;;;;;;;;;;5058716;28;20125;-73
2021/11/23 09:21:14;;;;;;;23.98;9.07;;;;;;;;;;5059043;28;20504;-72
2021/11/23 09:23:41;;;;;;;17.42;8.90;;;;;;;;;;5044315;28;20111;-73
2021/11/23 09:26:09;;;;;;;21.27;9.55;;;;;;;;;;5053625;28;20059;-73
2021/11/23 09:28:37;;;;;;;27.90;10.50;;;;;;;;;;5051168;28;20059;-73
2021/11/23 09:31:03;;;;;;;16.48;8.43;;;;;;;;;;5057743;28;20057;-73
2021/11/23 09:33:30;;;;;;;36.65;9.85;;;;;;;;;;5052708;28;20055;-73
2021/11/23 09:35:56;;;;;;;29.70;9.73;;;;;;;;;;5038529;28;20998;-73
2021/11/23 09:38:22;;;;;;;34.20;9.68;;;;;;;;;;5052221;28;20040;-73
2021/11/23 09:40:49;;;;;;;26.63;9.65;;;;;;;;;;5049757;28;20056;-73
2021/11/23 09:43:15;;;;;;;28.85;9.82;;;;;;;;;;5058222;28;20044;-73
2021/11/23 09:45:42;;;;;;;29.25;10.68;;;;;;;;;;5048883;28;20048;-73
2021/11/23 09:48:08;;;;;;;24.60;10.75;;;;;;;;;;5054883;28;20048;-73
2021/11/23 09:50:39;;;;;;;26.02;11.00;;;;;;;;;;5041167;28;20048;-72
2021/11/23 09:53:06;;;;;;;45.90;11.95;;;;;;;;;;5056458;28;20052;-72
2021/11/23 09:55:32;;;;;;;30.83;11.95;;;;;;;;;;5039463;28;20044;-72
2021/11/23 09:57:58;;;;;;;27.60;11.23;;;;;;;;;;5046822;28;20094;-72
2021/11/23 10:00:29;;;;;;;20.35;10.68;;;;;;;;;;5056225;28;20052;-74
2021/11/23 10:03:16;;;;;;;27.08;10.15;;;;;;;;;;5026729;28;20044;-73
2021/11/23 10:05:43;;;;;;;21.47;10.70;;;;;;;;;;5033253;28;20072;-73
2021/11/23 10:08:13;;;;;;;23.02;10.40;;;;;;;;;;5049240;28;20623;-75
2021/11/23 10:10:45;;;;;;;25.27;10.40;;;;;;;;;;5058626;28;20156;-74
2021/11/23 10:13:12;;;;;;;36.90;11.63;;;;;;;;;;5049473;28;20079;-74
2021/11/23 10:15:45;;;;;;;21.58;9.48;;;;;;;;;;5055764;28;20061;-74
2021/11/23 10:18:18;;;;;;;20.13;10.50;;;;;;;;;;5050521;28;20121;-74
2021/11/23 10:20:46;;;;;;;17.30;9.93;;;;;;;;;;5043818;28;20059;-74
2021/11/23 10:23:14;;;;;;;24.00;10.57;;;;;;;;;;5056584;28;20396;-74
2021/11/23 10:25:42;;;;;;;19.38;9.93;;;;;;;;;;5047862;28;20839;-74
2021/11/23 10:28:09;;;;;;;24.65;10.32;;;;;;;;;;5057767;28;20633;-74
2021/11/23 10:30:40;;;;;;;33.67;11.00;;;;;;;;;;5046714;28;20056;-74
2021/11/23 10:33:06;;;;;;;24.45;10.43;;;;;;;;;;5050227;28;20771;-74
2021/11/23 10:35:33;;;;;;;25.52;10.45;;;;;;;;;;5058180;28;20044;-74
2021/11/23 10:37:59;;;;;;;19.77;11.15;;;;;;;;;;5050516;28;20045;-74
2021/11/23 10:40:28;;;;;;;24.48;10.65;;;;;;;;;;5039967;28;20072;-74
2021/11/23 10:42:54;;;;;;;;;;;;;;;;;;5050254;28;20048;-74
2021/11/23 10:45:22;;;;;;;27.48;10.50;;;;;;;;;;5055169;28;19939;-74
2021/11/23 10:47:49;;;;;;;23.15;10.98;;;;;;;;;;5045476;28;20075;-74
2021/11/23 10:50:17;;;;;;;22.33;11.40;;;;;;;;;;5057038;28;20044;-74
2021/11/23 10:52:47;;;;;;;21.08;10.70;;;;;;;;;;5057470;28;20053;-74
2021/11/23 10:55:22;;;;;;;22.33;10.30;;;;;;;;;;5049307;28;20599;-74
2021/11/23 10:57:49;;;;;;;20.38;10.43;;;;;;;;;;5055867;28;20410;-74
2021/11/23 11:00:16;;;;;;;22.42;10.80;;;;;;;;;;5048504;28;20052;-74
2021/11/23 11:02:43;;;;;;;21.60;10.68;;;;;;;;;;5054040;28;20048;-74
2021/11/23 11:05:14;;;;;;;24.92;10.55;;;;;;;;;;5052404;28;20037;-74
2021/11/23 11:07:41;;;;;;;19.58;10.05;;;;;;;;;;5055215;28;20048;-74
2021/11/23 11:10:08;;;;;;;21.05;10.85;;;;;;;;;;5052426;28;20049;-74
2021/11/23 11:12:35;;;;;;;23.60;10.40;;;;;;;;;;5054504;28;20051;-73
2021/11/23 11:15:03;;;;;;;25.05;10.60;;;;;;;;;;5032697;28;20052;-73
2021/11/23 11:17:29;;;;;;;18.20;9.82;;;;;;;;;;5048843;28;20059;-73
2021/11/23 11:19:56;;;;;;;21.27;8.85;;;;;;;;;;5056676;28;20664;-73
2021/11/23 11:22:27;;;;;;;19.70;9.55;;;;;;;;;;5049785;28;20052;-74
2021/11/23 11:25:19;;;;;;;23.20;10.60;;;;;;;;;;5057626;28;20052;-74
2021/11/23 11:27:50;;;;;;;19.90;9.13;;;;;;;;;;5042533;28;20040;-74
2021/11/23 11:30:38;;;;;;;18.05;8.70;;;;;;;;;;5034268;28;20143;-73
2021/11/23 11:33:04;;;;;;;19.70;8.75;;;;;;;;;;5038848;28;20063;-74
2021/11/23 11:35:33;;;;;;;15.82;7.00;;;;;;;;;;5054231;28;20048;-73
2021/11/23 11:38:00;;;;;;;15.77;7.40;;;;;;;;;;5059008;28;20040;-74
2021/11/23 11:40:28;;;;;;;15.45;6.82;;;;;;;;;;5047579;28;20271;-74
2021/11/23 11:43:05;;;;;;;16.38;7.93;;;;;;;;;;5054200;28;20049;-74
2021/11/23 11:45:45;;;;;;;15.52;7.43;;;;;;;;;;5054604;28;20490;-74
2021/11/23 11:48:34;;;;;;;19.25;6.95;;;;;;;;;;5058328;28;20059;-74
2021/11/23 11:51:07;;;;;;;11.88;5.45;;;;;;;;;;5051487;28;20040;-74
2021/11/23 11:53:38;;;;;;;8.70;4.85;;;;;;;;;;5056688;28;20402;-74
2021/11/23 11:56:05;;;;;;;9.15;5.50;;;;;;;;;;5048146;28;20059;-74
2021/11/23 11:58:43;;;;;;;11.10;4.97;;;;;;;;;;5059025;28;20437;-74
2021/11/23 12:01:19;;;;;;;9.32;5.22;;;;;;;;;;5058955;28;20182;-74
2021/11/23 12:03:59;;;;;;;11.05;4.82;;;;;;;;;;5053468;28;20465;-74
2021/11/23 12:06:45;;;;;;;11.65;4.43;;;;;;;;;;5060131;28;20048;-74
2021/11/23 12:09:31;;;;;;;13.30;4.65;;;;;;;;;;5047774;28;20071;-74
2021/11/23 12:12:17;;;;;;;7.20;4.47;;;;;;;;;;5060671;28;20067;-74
2021/11/23 12:14:51;;;;;;;11.75;4.60;;;;;;;;;;5052191;28;20052;-74
2021/11/23 12:17:25;;;;;;;10.07;5.07;;;;;;;;;;5060110;28;20054;-74
2021/11/23 12:20:01;;;;;;;8.50;4.38;;;;;;;;;;5050645;28;20047;-74
2021/11/23 12:22:36;;;;;;;8.30;4.28;;;;;;;;;;5034225;28;20910;-73
2021/11/23 12:25:03;;;;;;;7.55;4.03;;;;;;;;;;5051305;28;20060;-73
2021/11/23 12:27:36;;;;;;;11.85;4.20;;;;;;;;;;5040542;28;20899;-73
2021/11/23 12:30:05;;;;;;;6.95;4.03;;;;;;;;;;5059528;28;20056;-73
2021/11/23 12:32:34;;;;;;;8.80;4.53;;;;;;;;;;5052675;28;20076;-73
2021/11/23 12:35:00;;;;;;;;;;;;;;;;;;5054709;28;20048;-74
2021/11/23 12:37:34;;;;;;;11.57;4.68;;;;;;;;;;5046975;28;20480;-73
2021/11/23 12:40:30;;;;;;;9.93;5.05;;;;;;;;;;5058377;28;20424;-73
2021/11/23 12:42:59;;;;;;;15.40;6.13;;;;;;;;;;5032696;28;20604;-73
2021/11/23 12:45:26;;;;;;;13.23;7.38;;;;;;;;;;5057671;28;20045;-73
2021/11/23 12:47:52;;;;;;;14.13;7.07;;;;;;;;;;5043656;28;20052;-73
2021/11/23 12:50:18;;;;;;;16.63;7.55;;;;;;;;;;5054598;28;20421;-73
2021/11/23 12:52:45;;;;;;;15.30;8.00;;;;;;;;;;5058561;28;20055;-73
2021/11/23 12:55:15;;;;;;;15.50;8.75;;;;;;;;;;5050024;28;20045;-73
2021/11/23 12:57:47;;;;;;;18.70;8.90;;;;;;;;;;5059226;28;20052;-73
2021/11/23 13:00:16;;;;;;;13.85;8.60;;;;;;;;;;5051043;28;20044;-73
2021/11/23 13:02:46;;;;;;;13.93;7.85;;;;;;;;;;5053690;28;20059;-73
2021/11/23 13:05:23;;;;;;;22.45;8.35;;;;;;;;;;5044083;28;20513;-73
2021/11/23 13:08:04;;;;;;;17.58;7.85;;;;;;;;;;5058100;28;20040;-73
2021/11/23 13:10:35;;;;;;;11.20;7.95;;;;;;;;;;5051469;28;20098;-73
2021/11/23 13:13:09;;;;;;;14.80;8.50;;;;;;;;;;5058261;28;20791;-73
2021/11/23 13:15:35;;;;;;;14.27;8.30;;;;;;;;;;5054895;28;20054;-72
2021/11/23 13:18:06;;;;;;;15.90;8.68;;;;;;;;;;5043401;28;20473;-74
2021/11/23 13:20:41;;;;;;;19.00;9.15;;;;;;;;;;5058989;28;20052;-74
2021/11/23 13:23:25;;;;;;;15.60;9.02;;;;;;;;;;5051043;28;20052;-73
2021/11/23 13:26:03;;;;;;;16.75;8.85;;;;;;;;;;5058422;28;20044;-73
2021/11/23 13:28:32;;;;;;;15.27;8.45;;;;;;;;;;5049959;28;20044;-73
2021/11/23 13:31:00;;;;;;;16.35;7.95;;;;;;;;;;5052260;28;20049;-73
2021/11/23 13:33:26;;;;;;;12.38;7.63;;;;;;;;;;5046670;28;20553;-73
2021/11/23 13:35:56;;;;;;;18.85;9.20;;;;;;;;;;5058166;28;20151;-73
2021/11/23 13:38:25;;;;;;;13.25;8.07;;;;;;;;;;5056997;28;20048;-72
2021/11/23 13:40:51;;;;;;;11.07;8.13;;;;;;;;;;5056093;28;20054;-73
2021/11/23 13:43:18;;;;;;;16.98;7.95;;;;;;;;;;5055666;28;20737;-73
2021/11/23 13:46:01;;;;;;;17.65;7.97;;;;;;;;;;5023779;28;20059;-74
2021/11/23 13:48:27;;;;;;;15.70;8.38;;;;;;;;;;5057345;28;20079;-74
2021/11/23 13:50:58;;;;;;;11.70;7.65;;;;;;;;;;5051643;28;20214;-73
2021/11/23 13:53:25;;;;;;;12.63;7.18;;;;;;;;;;5058486;28;20076;-74
2021/11/23 13:55:51;;;;;;;17.92;7.85;;;;;;;;;;5050127;28;20056;-73
2021/11/23 13:58:18;;;;;;;14.40;7.18;;;;;;;;;;5053239;28;20047;-73
2021/11/23 14:00:44;;;;;;;14.13;7.38;;;;;;;;;;5032235;28;20059;-73
2021/11/23 14:03:12;;;;;;;10.98;7.28;;;;;;;;;;5048564;28;20063;-74
2021/11/23 14:05:50;;;;;;;12.95;6.65;;;;;;;;;;5057440;28;20087;-73
2021/11/23 14:08:20;;;;;;;12.32;6.93;;;;;;;;;;5049080;28;20425;-74
2021/11/23 14:10:51;;;;;;;9.77;6.45;;;;;;;;;;5039623;28;20139;-74
2021/11/23 14:13:19;;;;;;;10.45;6.55;;;;;;;;;;5042476;28;20047;-74
2021/11/23 14:15:46;;;;;;;13.57;6.22;;;;;;;;;;5056761;28;20417;-74
2021/11/23 14:18:15;;;;;;;10.68;6.47;;;;;;;;;;5050108;28;20169;-74
2021/11/23 14:20:48;;;;;;;12.85;5.82;;;;;;;;;;5057646;28;20497;-74
2021/11/23 14:23:28;;;;;;;11.90;5.65;;;;;;;;;;5039016;28;20053;-74
2021/11/23 14:25:59;;;;;;;11.73;5.00;;;;;;;;;;5044008;28;20048;-74
2021/11/23 14:28:26;;;;;;;11.60;3.92;;;;;;;;;;5052938;28;20048;-74
2021/11/23 14:30:52;;;;;;;10.38;4.07;;;;;;;;;;5050653;28;20044;-74
2021/11/23 14:33:22;;;;;;;8.70;4.50;;;;;;;;;;5039912;28;20049;-74
2021/11/23 14:35:49;;;;;;;11.18;4.38;;;;;;;;;;5050206;28;20052;-75